Time;durP1;ratioP1;P1;durP2;ratioP2;P2;SDS_P1;SDS_P2;PMS_P1;PMS_P2;Temp;Humidity;BMP_temperature;BMP_pressure;BME280_temperature;BME280_humidity;BME280_pressure;Samples;Min_cycle;Max_cycle;Signal;HPM_P1;HPM_P2
2022/05/11 00:00:52;;;;;;;0.08;0.08;;;;;;;10.12;100.00;101286.53;10413112;28;20527;-67
2022/05/11 00:05:52;;;;;;;0.00;0.00;;;;;;;10.13;100.00;101294.38;10420176;28;20014;-66
2022/05/11 00:10:53;;;;;;;0.10;0.10;;;;;;;10.04;100.00;101283.78;10412422;28;20029;-66
2022/05/11 00:15:53;;;;;;;0.00;0.00;;;;;;;10.04;100.00;101286.44;10413233;28;20021;-63
2022/05/11 00:20:53;;;;;;;0.00;0.00;;;;;;;10.08;100.00;101275.34;10412794;28;20465;-63
2022/05/11 00:25:54;;;;;;;0.03;0.03;;;;;;;10.24;100.00;101274.75;10412073;28;20427;-63
2022/05/11 00:30:54;;;;;;;0.00;0.00;;;;;;;10.36;100.00;101267.44;10412195;28;20079;-64
2022/05/11 00:35:54;;;;;;;0.00;0.00;;;;;;;10.45;100.00;101261.22;10415763;28;20013;-63
2022/05/11 00:40:59;;;;;;;0.00;0.00;;;;;;;10.51;100.00;101257.13;10412000;28;20029;-64
2022/05/11 00:46:11;;;;;;;0.00;0.00;;;;;;;10.52;100.00;101253.47;10411183;28;20099;-63
2022/05/11 00:51:13;;;;;;;0.05;0.05;;;;;;;10.52;100.00;101248.16;10410054;28;20022;-67
2022/05/11 00:56:14;;;;;;;0.05;0.05;;;;;;;10.52;100.00;101248.16;10410664;28;20018;-66
2022/05/11 01:01:14;;;;;;;0.00;0.00;;;;;;;10.59;100.00;101251.91;10411329;28;20603;-63
2022/05/11 01:06:16;;;;;;;0.00;0.00;;;;;;;10.54;100.00;101232.88;10415317;28;20028;-66
2022/05/11 01:11:17;;;;;;;0.08;0.08;;;;;;;10.40;100.00;101221.72;10410407;28;20029;-62
2022/05/11 01:16:18;;;;;;;0.00;0.00;;;;;;;10.30;100.00;101214.78;10409122;28;20021;-63
2022/05/11 01:21:18;;;;;;;0.00;0.00;;;;;;;10.29;100.00;101227.22;10409328;28;20034;-63
2022/05/11 01:26:19;;;;;;;0.00;0.00;;;;;;;10.30;100.00;101218.28;10410687;28;20108;-63
2022/05/11 01:31:20;;;;;;;0.00;0.00;;;;;;;10.31;100.00;101206.63;10410947;28;20369;-63
2022/05/11 01:36:34;;;;;;;0.10;0.10;;;;;;;10.36;100.00;101203.53;10414590;28;20029;-65
2022/05/11 01:41:40;;;;;;;0.00;0.00;;;;;;;10.40;100.00;101194.25;10408524;28;20030;-66
2022/05/11 01:46:45;;;;;;;0.00;0.00;;;;;;;10.61;100.00;101199.31;10407921;28;20026;-67
2022/05/11 01:51:45;;;;;;;0.10;0.10;;;;;;;10.77;100.00;101202.16;10408200;28;20037;-63
2022/05/11 01:56:46;;;;;;;0.00;0.00;;;;;;;10.86;100.00;101195.91;10409445;28;20469;-65
2022/05/11 02:01:46;;;;;;;0.00;0.00;;;;;;;10.94;100.00;101180.97;10410895;28;20053;-65
2022/05/11 02:12:06;;;;;;;0.08;0.08;;;;;;;11.01;100.00;101161.56;10407607;28;20029;-63
2022/05/11 02:17:07;;;;;;;0.00;0.00;;;;;;;10.98;100.00;101161.03;10409337;28;20096;-67
2022/05/11 02:22:07;;;;;;;0.10;0.10;;;;;;;10.98;100.00;101147.69;10409536;28;20045;-64
2022/05/11 02:27:07;;;;;;;0.00;0.00;;;;;;;10.96;100.00;101141.69;10409289;28;20021;-61
2022/05/11 02:32:08;;;;;;;0.10;0.10;;;;;;;10.96;100.00;101139.84;10412230;28;20267;-60
2022/05/11 02:37:08;;;;;;;0.00;0.00;;;;;;;10.96;100.00;101153.16;10419329;28;20018;-64
2022/05/11 02:42:08;;;;;;;0.10;0.10;;;;;;;10.96;100.00;101147.00;10416835;28;20030;-64
2022/05/11 02:47:09;;;;;;;0.08;0.08;;;;;;;10.97;100.00;101157.53;10416010;28;20263;-60
2022/05/11 02:52:09;;;;;;;0.00;0.00;;;;;;;10.99;100.00;101160.84;10416207;28;20018;-63
2022/05/11 02:57:09;;;;;;;0.00;0.00;;;;;;;11.00;100.00;101153.72;10414902;28;20100;-64
2022/05/11 03:02:10;;;;;;;0.10;0.10;;;;;;;10.99;100.00;101160.03;10415714;28;20029;-61
2022/05/11 03:07:10;;;;;;;0.00;0.00;;;;;;;10.98;100.00;101151.19;10420706;28;20018;-66
2022/05/11 03:12:11;;;;;;;0.00;0.00;;;;;;;10.98;100.00;101147.69;10415277;28;20025;-66
2022/05/11 03:17:12;;;;;;;0.00;0.00;;;;;;;10.96;100.00;101142.50;10414800;28;20017;-66
2022/05/11 03:22:12;;;;;;;0.00;0.00;;;;;;;10.92;100.00;101132.31;10414818;28;20640;-63
2022/05/11 03:27:12;;;;;;;0.10;0.10;;;;;;;10.99;100.00;101138.69;10412264;28;20018;-62
2022/05/11 03:37:33;;;;;;;0.00;0.00;;;;;;;11.00;100.00;101122.56;10412587;28;20021;-62
2022/05/11 03:42:35;;;;;;;0.08;0.08;;;;;;;11.00;100.00;101119.06;10413412;28;20499;-62
2022/05/11 03:47:35;;;;;;;0.03;0.03;;;;;;;11.02;100.00;101115.22;10413341;28;20381;-62
2022/05/11 03:52:36;;;;;;;0.00;0.00;;;;;;;11.04;100.00;101096.44;10409457;28;20028;-62
2022/05/11 03:57:38;;;;;;;0.10;0.10;;;;;;;11.06;100.00;101111.28;10412799;28;20045;-63
2022/05/11 04:02:39;;;;;;;0.10;0.10;;;;;;;11.08;100.00;101105.78;10401861;28;20112;-62
2022/05/11 04:07:41;;;;;;;0.00;0.00;;;;;;;11.09;100.00;101096.81;10412208;28;20041;-63
2022/05/11 04:12:41;;;;;;;0.08;0.08;;;;;;;11.10;100.00;101091.31;10412426;28;20546;-62
2022/05/11 04:17:42;;;;;;;0.00;0.00;;;;;;;11.16;100.00;101083.69;10412529;28;20126;-62
2022/05/11 04:22:43;;;;;;;0.00;0.00;;;;;;;11.23;100.00;101068.75;10414799;28;20335;-61
2022/05/11 04:27:48;;;;;;;0.10;0.10;;;;;;;11.30;100.00;101069.78;10415032;28;20026;-62
2022/05/11 04:32:48;;;;;;;0.00;0.00;;;;;;;11.39;100.00;101063.50;10413733;28;20025;-62
2022/05/11 04:37:49;;;;;;;0.10;0.10;;;;;;;11.45;100.00;101057.50;10414279;28;20025;-62
2022/05/11 04:42:50;;;;;;;0.10;0.10;;;;;;;11.55;100.00;101062.75;10421927;28;20022;-62
2022/05/11 04:47:50;;;;;;;0.05;0.05;;;;;;;11.60;100.00;101049.75;10412878;28;20017;-63
2022/05/11 04:52:52;;;;;;;0.10;0.10;;;;;;;11.68;100.00;101041.78;10415002;28;20021;-63
2022/05/11 04:57:52;;;;;;;0.10;0.10;;;;;;;11.72;100.00;101053.81;10413118;28;20037;-62
2022/05/11 05:02:53;;;;;;;0.10;0.10;;;;;;;11.77;100.00;101056.81;10411659;28;20026;-64
2022/05/11 05:07:53;;;;;;;0.10;0.10;;;;;;;11.83;100.00;101055.34;10413753;28;20049;-64
2022/05/11 05:12:53;;;;;;;0.10;0.10;;;;;;;11.91;100.00;101054.56;10414088;28;20057;-62
2022/05/11 05:17:54;;;;;;;0.10;0.10;;;;;;;11.98;100.00;101060.91;10412077;28;20029;-62
2022/05/11 05:22:54;;;;;;;0.10;0.10;;;;;;;12.09;100.00;101041.09;10413360;28;20021;-67
2022/05/11 05:31:04;;;;;;;0.10;0.10;;;;;;;12.21;100.00;101051.28;10414110;28;20021;-67
2022/05/11 05:33:15;;;;;;;0.10;0.10;;;;;;;12.26;100.00;101052.66;10413981;28;20104;-62
2022/05/11 05:38:15;;;;;;;0.10;0.10;;;;;;;12.32;100.00;101055.50;10414529;28;20025;-62
2022/05/11 05:43:16;;;;;;;0.10;0.10;;;;;;;12.41;100.00;101040.31;10415055;28;20018;-62
2022/05/11 05:48:18;;;;;;;0.10;0.10;;;;;;;12.51;100.00;101046.34;10412745;28;20067;-62
2022/05/11 05:53:20;;;;;;;0.00;0.00;;;;;;;12.71;100.00;101043.31;10411407;28;20105;-62
2022/05/11 05:58:20;;;;;;;0.10;0.10;;;;;;;12.89;100.00;101044.00;10412300;28;20136;-62
2022/05/11 06:03:23;;;;;;;0.10;0.10;;;;;;;12.98;100.00;101034.13;10416441;28;20096;-62
2022/05/11 06:08:23;;;;;;;0.10;0.10;;;;;;;13.05;100.00;101038.59;10417151;28;20472;-62
2022/05/11 06:13:24;;;;;;;0.10;0.10;;;;;;;13.13;100.00;101041.25;10419740;28;20009;-64
2022/05/11 06:18:26;;;;;;;0.10;0.10;;;;;;;13.20;100.00;101027.19;10419597;28;20025;-64
2022/05/11 06:23:26;;;;;;;0.10;0.10;;;;;;;13.26;100.00;101018.53;10421749;28;20024;-64
2022/05/11 06:28:27;;;;;;;0.10;0.10;;;;;;;13.37;100.00;101012.81;10420066;28;20034;-65
2022/05/11 06:33:27;;;;;;;0.10;0.10;;;;;;;13.45;100.00;101020.81;10421088;28;20395;-65
2022/05/11 06:38:28;;;;;;;0.10;0.10;;;;;;;13.71;100.00;101038.44;10418029;28;20511;-65
2022/05/11 06:43:28;;;;;;;0.10;0.10;;;;;;;14.07;100.00;101032.53;10421120;28;20388;-62
2022/05/11 06:48:28;;;;;;;0.10;0.10;;;;;;;14.29;100.00;101021.00;10417120;28;20029;-62
2022/05/11 06:59:16;;;;;;;0.10;0.10;;;;;;;14.41;100.00;101021.44;10420495;28;20029;-63
2022/05/11 07:04:08;;;;;;;0.10;0.10;;;;;;;14.75;100.00;101021.00;10418360;28;20029;-65
2022/05/11 07:09:09;;;;;;;0.10;0.10;;;;;;;14.75;100.00;101009.41;10417885;28;20029;-65
2022/05/11 07:14:09;;;;;;;0.10;0.10;;;;;;;14.74;100.00;101022.00;10414389;28;20104;-65
2022/05/11 07:19:09;;;;;;;0.10;0.10;;;;;;;14.76;100.00;101014.63;10421824;28;20037;-68
2022/05/11 07:24:10;;;;;;;0.10;0.10;;;;;;;14.99;100.00;101021.78;10415899;28;20018;-67
2022/05/11 07:29:10;;;;;;;0.10;0.10;;;;;;;15.24;100.00;101023.19;10416172;28;20020;-66
2022/05/11 07:34:11;;;;;;;0.10;0.10;;;;;;;15.45;100.00;100997.44;10430968;28;20024;-66
2022/05/11 07:39:11;;;;;;;0.10;0.10;;;;;;;15.66;100.00;101010.09;10423294;28;20457;-66
2022/05/11 07:44:11;;;;;;;0.10;0.10;;;;;;;15.83;100.00;100995.47;10413924;28;20495;-65
2022/05/11 07:49:12;;;;;;;0.10;0.10;;;;;;;15.90;100.00;100993.66;10415996;28;20013;-66
2022/05/11 07:54:13;;;;;;;0.10;0.10;;;;;;;15.87;100.00;101002.09;10413225;28;20115;-66
2022/05/11 08:04:32;;;;;;;0.10;0.10;;;;;;;15.76;100.00;100973.88;10420623;28;20026;-66
2022/05/11 08:09:32;;;;;;;0.10;0.10;;;;;;;15.89;100.00;100975.06;10416133;28;20020;-66
2022/05/11 08:14:33;;;;;;;0.10;0.10;;;;;;;15.98;100.00;100974.75;10416106;28;20275;-66
2022/05/11 08:19:33;;;;;;;0.00;0.00;;;;;;;16.05;100.00;100974.81;10418597;28;20057;-66
2022/05/11 08:24:33;;;;;;;0.10;0.10;;;;;;;16.16;100.00;100968.09;10412188;28;20018;-66
2022/05/11 08:34:53;;;;;;;0.10;0.10;;;;;;;17.05;100.00;100954.94;10401582;22;20054;-63
2022/05/11 08:39:54;;;;;;;0.10;0.10;;;;;;;17.41;100.00;100957.38;10331866;28;20448;-65
2022/05/11 08:44:55;;;;;;;0.10;0.10;;;;;;;17.88;100.00;100957.56;10328667;28;20041;-64
2022/05/11 08:50:09;;;;;;;0.10;0.10;;;;;;;18.00;100.00;100958.63;10322335;28;20031;-63
2022/05/11 08:55:29;;;;;;;0.03;0.03;;;;;;;18.18;100.00;100944.56;10325443;28;20497;-63
2022/05/11 09:00:29;;;;;;;0.00;0.00;;;;;;;19.07;100.00;100948.63;10328400;28;20116;-64
2022/05/11 09:05:31;;;;;;;0.10;0.10;;;;;;;19.76;96.49;100944.41;10323201;28;20335;-63
2022/05/11 09:10:34;;;;;;;0.10;0.10;;;;;;;20.01;94.29;100946.34;10328962;28;20061;-61
2022/05/11 09:15:53;;;;;;;0.10;0.10;;;;;;;20.16;91.81;100935.19;10327607;28;20018;-63
2022/05/11 09:20:55;;;;;;;0.10;0.10;;;;;;;20.96;91.36;100940.75;10325753;28;20032;-64
2022/05/11 09:26:01;;;;;;;0.10;0.10;;;;;;;21.43;84.71;100936.44;10292011;28;20023;-65
2022/05/11 09:31:05;;;;;;;0.10;0.10;;;;;;;21.92;81.63;100931.81;10286238;28;20030;-64
2022/05/11 09:36:08;;;;;;;0.10;0.10;;;;;;;22.36;79.44;100926.13;10290237;28;20026;-65
2022/05/11 09:41:17;;;;;;;;;;;;;;;22.49;75.61;100914.25;10323143;28;20054;-66
2022/05/11 09:46:27;;;;;;;0.00;0.00;;;;;;;22.20;72.73;100900.53;10331758;28;19925;-67
2022/05/11 09:51:39;;;;;;;0.10;0.10;;;;;;;21.81;75.40;100897.34;10300878;28;20026;-67
2022/05/11 09:56:49;;;;;;;0.10;0.10;;;;;;;21.99;75.20;100914.59;10305565;28;20108;-67
2022/05/11 10:01:58;;;;;;;0.00;0.00;;;;;;;22.57;71.80;100900.28;10293157;28;20113;-67
2022/05/11 10:07:00;;;;;;;0.10;0.10;;;;;;;22.71;69.16;100912.56;10306307;28;20493;-68
2022/05/11 10:12:02;;;;;;;0.10;0.10;;;;;;;23.14;70.00;100915.94;10298487;28;20452;-64
2022/05/11 10:22:51;;;;;;;0.10;0.10;;;;;;;23.61;67.25;100894.03;10302587;28;20038;-66
2022/05/11 10:28:05;;;;;;;0.00;0.00;;;;;;;23.16;64.78;100892.09;10266010;28;20050;-67
2022/05/11 10:33:24;;;;;;;0.10;0.10;;;;;;;22.74;60.00;100898.50;10322667;28;20027;-64
2022/05/11 10:38:49;;;;;;;0.00;0.00;;;;;;;22.78;64.99;100891.56;10316965;28;20038;-64
2022/05/11 10:44:00;;;;;;;0.10;0.10;;;;;;;23.36;60.40;100887.06;10300041;28;20175;-65
2022/05/11 10:49:32;;;;;;;0.00;0.00;;;;;;;23.19;61.35;100883.47;10309863;28;20080;-65
2022/05/11 10:54:55;;;;;;;0.10;0.10;;;;;;;23.81;60.93;100882.72;10303475;28;20027;-64
2022/05/11 11:00:01;;;;;;;0.00;0.00;;;;;;;24.21;59.48;100881.75;10317821;22;20208;-68
2022/05/11 11:05:36;;;;;;;0.00;0.00;;;;;;;23.82;58.52;100873.47;10296337;28;20853;-67
2022/05/11 11:10:44;;;;;;;0.10;0.10;;;;;;;23.37;58.43;100877.00;10233858;28;20055;-67
2022/05/11 11:15:45;;;;;;;0.10;0.10;;;;;;;23.60;59.13;100870.63;10250693;28;20038;-67
2022/05/11 11:20:47;;;;;;;0.10;0.10;;;;;;;23.50;58.60;100855.78;10270569;28;20035;-67
2022/05/11 11:25:53;;;;;;;0.00;0.00;;;;;;;23.85;56.16;100856.66;10255497;28;20026;-67
2022/05/11 11:30:59;;;;;;;0.00;0.00;;;;;;;23.73;58.63;100849.41;10252549;29;20509;-67
2022/05/11 11:36:04;;;;;;;0.00;0.00;;;;;;;23.60;59.32;100843.44;10249027;28;20174;-67
2022/05/11 11:41:28;;;;;;;0.10;0.10;;;;;;;23.66;60.07;100837.03;10255096;28;20019;-68
2022/05/11 11:46:33;;;;;;;0.00;0.00;;;;;;;24.13;57.87;100837.53;10236268;29;20134;-67
2022/05/11 11:51:49;;;;;;;0.00;0.00;;;;;;;23.94;56.57;100831.56;10250507;28;20498;-69
2022/05/11 11:56:49;;;;;;;0.10;0.10;;;;;;;24.02;59.20;100834.91;10252243;28;20063;-67
2022/05/11 12:01:55;;;;;;;0.10;0.10;;;;;;;24.09;58.72;100827.41;10236668;28;20125;-67
2022/05/11 12:17:43;;;;;;;0.00;0.00;;;;;;;24.09;57.93;100827.41;10247713;28;20031;-68
2022/05/11 12:22:57;;;;;;;0.10;0.10;;;;;;;24.13;54.42;100832.09;10249661;28;20043;-68
2022/05/11 12:28:01;;;;;;;0.10;0.10;;;;;;;23.95;57.84;100835.91;10248671;28;20030;-68
2022/05/11 12:33:06;;;;;;;0.00;0.00;;;;;;;23.58;55.92;100832.81;10249768;28;20022;-68
2022/05/11 12:38:34;;;;;;;0.00;0.00;;;;;;;23.21;55.88;100833.25;10245479;28;20030;-68
2022/05/11 12:43:37;;;;;;;0.00;0.00;;;;;;;22.86;56.86;100832.50;10236095;28;20078;-68
2022/05/11 12:48:54;;;;;;;0.00;0.00;;;;;;;22.75;57.49;100831.47;10239790;28;20477;-68
2022/05/11 12:53:57;;;;;;;0.00;0.00;;;;;;;22.58;58.91;100829.50;10243513;28;20027;-68
2022/05/11 12:59:04;;;;;;;;;;;;;;;23.27;60.48;100823.28;10248525;28;20031;-68
2022/05/11 13:04:23;;;;;;;0.00;0.00;;;;;;;23.11;54.61;100814.00;10245872;28;19918;-68
2022/05/11 13:10:00;;;;;;;0.00;0.00;;;;;;;23.21;55.29;100805.22;10246096;28;20034;-68
2022/05/11 13:15:01;;;;;;;0.00;0.00;;;;;;;23.53;54.23;100804.69;10207600;28;20094;-68
2022/05/11 13:20:12;;;;;;;0.10;0.10;;;;;;;23.50;54.88;100795.13;10246174;28;20043;-68
2022/05/11 13:25:39;;;;;;;0.00;0.00;;;;;;;23.37;53.84;100792.75;10246795;28;20027;-68
2022/05/11 13:30:44;;;;;;;0.00;0.00;;;;;;;23.21;55.16;100788.91;10245076;29;20074;-69
2022/05/11 13:35:44;;;;;;;0.00;0.00;;;;;;;23.25;54.46;100780.06;10246506;28;20039;-69
2022/05/11 13:40:54;;;;;;;0.00;0.00;;;;;;;23.30;55.27;100773.91;10247433;29;20023;-68
2022/05/11 13:46:18;;;;;;;0.00;0.00;;;;;;;23.41;54.31;100770.25;10232203;28;20031;-68
2022/05/11 13:51:26;;;;;;;0.00;0.00;;;;;;;23.48;51.90;100770.13;10245433;28;20038;-69
2022/05/11 13:56:29;;;;;;;0.10;0.10;;;;;;;23.30;51.28;100765.75;10246715;28;20027;-69
2022/05/11 14:01:37;;;;;;;0.00;0.00;;;;;;;23.30;53.47;100763.03;10258796;28;20019;-69
2022/05/11 14:07:01;;;;;;;0.10;0.10;;;;;;;22.85;52.09;100762.97;10246921;28;20059;-69
2022/05/11 14:12:04;;;;;;;0.00;0.00;;;;;;;22.88;52.74;100755.16;10246907;28;20027;-69
2022/05/11 14:17:07;;;;;;;0.00;0.00;;;;;;;23.12;50.96;100746.91;10235557;28;20503;-69
2022/05/11 14:22:08;;;;;;;0.00;0.00;;;;;;;22.89;52.71;100737.78;10245401;28;20082;-69
2022/05/11 14:27:08;;;;;;;0.00;0.00;;;;;;;22.96;52.73;100727.63;10247870;28;20078;-69
2022/05/11 14:32:24;;;;;;;0.10;0.10;;;;;;;23.11;50.76;100723.53;10253635;28;20070;-68
2022/05/11 14:37:25;;;;;;;0.00;0.00;;;;;;;23.38;51.14;100719.09;10222253;28;20110;-68
2022/05/11 14:42:25;;;;;;;0.00;0.00;;;;;;;23.47;49.38;100720.38;10253288;28;20098;-69
2022/05/11 14:47:26;;;;;;;0.05;0.05;;;;;;;23.43;53.94;100723.81;10245781;28;20018;-69
2022/05/11 14:52:27;;;;;;;0.00;0.00;;;;;;;22.72;60.32;100721.47;10243629;28;20034;-69
2022/05/11 15:02:46;;;;;;;0.00;0.00;;;;;;;21.37;64.08;100709.78;10246223;28;20031;-68
2022/05/11 15:07:48;;;;;;;0.10;0.10;;;;;;;21.19;65.09;100723.38;10251291;28;20031;-68
2022/05/11 15:18:11;;;;;;;0.10;0.10;;;;;;;20.62;68.30;100731.88;10243115;28;20055;-68
2022/05/11 15:23:14;;;;;;;0.00;0.00;;;;;;;20.32;70.29;100720.97;10250747;28;20107;-69
2022/05/11 15:28:16;;;;;;;0.00;0.00;;;;;;;19.99;70.61;100715.94;10250716;28;20034;-68
2022/05/11 15:33:22;;;;;;;0.10;0.10;;;;;;;19.86;73.83;100706.91;10210830;29;20534;-68
2022/05/11 15:38:22;;;;;;;0.08;0.08;;;;;;;19.74;74.52;100707.88;10225143;28;20399;-69
2022/05/11 15:43:22;;;;;;;0.10;0.10;;;;;;;19.44;76.24;100713.94;10236022;29;20023;-68
2022/05/11 15:48:23;;;;;;;0.10;0.10;;;;;;;19.21;75.39;100707.22;10242615;28;20031;-68
2022/05/11 15:53:29;;;;;;;0.10;0.10;;;;;;;18.95;76.79;100727.13;10251000;28;20510;-68
2022/05/11 15:58:31;;;;;;;0.00;0.00;;;;;;;18.75;75.83;100731.81;10251003;28;20746;-68
2022/05/11 16:03:32;;;;;;;0.00;0.00;;;;;;;18.54;77.65;100728.34;10264569;28;20023;-68
2022/05/11 16:08:32;;;;;;;0.10;0.10;;;;;;;18.36;78.15;100733.63;10251114;28;20483;-68
2022/05/11 16:13:32;;;;;;;0.10;0.10;;;;;;;18.30;76.94;100729.06;10250209;29;20035;-68
2022/05/11 16:23:52;;;;;;;0.10;0.10;;;;;;;18.00;76.09;100736.81;10250510;28;20479;-68
2022/05/11 16:28:54;;;;;;;0.10;0.10;;;;;;;17.70;76.57;100748.00;10252644;28;20063;-68
2022/05/11 16:33:54;;;;;;;0.10;0.10;;;;;;;17.52;77.83;100754.00;10250338;28;20421;-68
2022/05/11 16:38:54;;;;;;;0.10;0.10;;;;;;;17.17;78.52;100753.34;10252082;28;20023;-68
2022/05/11 16:43:56;;;;;;;0.10;0.10;;;;;;;16.95;79.08;100758.06;10264503;28;20430;-67
2022/05/11 16:48:56;;;;;;;0.10;0.10;;;;;;;16.86;77.84;100757.41;10248988;28;20023;-68
2022/05/11 16:53:57;;;;;;;0.10;0.10;;;;;;;16.71;76.94;100752.16;10249427;28;20471;-68
2022/05/11 17:03:59;;;;;;;0.10;0.10;;;;;;;16.47;79.42;100764.25;10408684;28;20049;-68
2022/05/11 17:09:00;;;;;;;0.10;0.10;;;;;;;16.38;76.60;100767.31;10410106;28;20044;-65
2022/05/11 17:14:01;;;;;;;0.10;0.10;;;;;;;16.36;76.53;100764.81;10407517;28;20091;-66
2022/05/11 17:19:02;;;;;;;0.10;0.10;;;;;;;16.27;76.07;100755.25;10410165;28;20037;-67
2022/05/11 17:24:04;;;;;;;0.10;0.10;;;;;;;16.04;76.04;100761.72;10409886;28;20032;-67
2022/05/11 17:29:05;;;;;;;0.10;0.10;;;;;;;15.82;77.31;100765.47;10409358;28;20029;-68
2022/05/11 17:34:06;;;;;;;0.10;0.10;;;;;;;15.71;78.91;100774.94;10409838;28;20373;-67
2022/05/11 17:39:06;;;;;;;0.10;0.10;;;;;;;15.59;81.15;100776.41;10409752;28;20026;-64
2022/05/11 17:44:07;;;;;;;0.10;0.10;;;;;;;15.47;80.85;100769.91;10408811;28;20302;-65
2022/05/11 17:49:08;;;;;;;0.10;0.10;;;;;;;15.28;81.22;100764.19;10408007;28;20025;-65
2022/05/11 17:54:11;;;;;;;0.10;0.10;;;;;;;15.14;82.63;100765.06;10408906;28;20034;-67
2022/05/11 17:59:11;;;;;;;0.10;0.10;;;;;;;14.99;83.42;100754.38;10409240;28;20035;-65
2022/05/11 18:04:13;;;;;;;0.10;0.10;;;;;;;14.81;84.23;100767.38;10413614;28;20102;-67
2022/05/11 18:09:14;;;;;;;0.00;0.00;;;;;;;14.69;85.48;100791.16;10417041;28;20092;-64
2022/05/11 18:14:14;;;;;;;0.10;0.10;;;;;;;14.61;86.72;100802.81;10415804;28;20083;-66
2022/05/11 18:19:14;;;;;;;0.10;0.10;;;;;;;14.48;88.33;100808.78;10416816;28;20476;-65
2022/05/11 18:24:15;;;;;;;0.10;0.10;;;;;;;14.35;88.59;100810.47;10417376;28;20024;-65
2022/05/11 18:29:15;;;;;;;0.10;0.10;;;;;;;14.24;89.29;100792.97;10415790;28;20025;-65
2022/05/11 18:34:16;;;;;;;0.10;0.10;;;;;;;14.16;89.00;100779.66;10415169;28;20530;-65
2022/05/11 18:39:17;;;;;;;0.10;0.10;;;;;;;14.09;89.73;100763.50;10414650;28;20028;-65
2022/05/11 18:44:17;;;;;;;0.10;0.10;;;;;;;13.99;91.31;100777.19;10416925;28;20018;-67
2022/05/11 18:49:18;;;;;;;0.10;0.10;;;;;;;13.97;92.06;100789.09;10415632;28;20112;-65
2022/05/11 18:54:19;;;;;;;0.10;0.10;;;;;;;13.91;92.11;100796.00;10414816;28;20025;-63
2022/05/11 18:59:20;;;;;;;0.10;0.10;;;;;;;13.88;91.07;100798.22;10414944;28;20041;-67
2022/05/11 19:04:20;;;;;;;0.10;0.10;;;;;;;13.78;90.84;100793.91;10414304;28;20295;-65
2022/05/11 19:09:22;;;;;;;0.00;0.00;;;;;;;13.68;89.64;100814.75;10415033;28;20059;-66
2022/05/11 19:14:22;;;;;;;0.15;0.15;;;;;;;13.61;89.04;100792.38;10411030;28;20099;-64
2022/05/11 19:19:23;;;;;;;0.15;0.15;;;;;;;13.53;89.47;100798.66;10412867;28;20160;-65
2022/05/11 19:24:23;;;;;;;0.10;0.10;;;;;;;13.46;89.94;100789.66;10412921;28;20017;-63
2022/05/11 19:29:23;;;;;;;0.10;0.10;;;;;;;13.33;90.77;100795.63;10413836;28;20044;-63
2022/05/11 19:34:24;;;;;;;0.10;0.10;;;;;;;13.21;91.07;100817.59;10412556;28;20379;-67
2022/05/11 19:39:24;;;;;;;0.10;0.10;;;;;;;13.09;91.45;100814.47;10402846;28;20022;-64
2022/05/11 19:44:26;;;;;;;0.10;0.10;;;;;;;13.05;92.59;100807.81;10412108;28;20017;-63
2022/05/11 19:49:28;;;;;;;0.10;0.10;;;;;;;12.98;93.71;100778.28;10411939;28;20033;-64
2022/05/11 19:54:28;;;;;;;0.10;0.10;;;;;;;12.86;95.60;100771.66;10410350;28;20049;-64
2022/05/11 19:59:28;;;;;;;0.10;0.10;;;;;;;12.78;95.65;100767.19;10409935;28;20484;-63
2022/05/11 20:04:29;;;;;;;0.10;0.10;;;;;;;12.72;98.11;100769.72;10410455;28;20143;-62
2022/05/11 20:09:29;;;;;;;0.10;0.10;;;;;;;12.71;97.67;100784.91;10376032;28;20029;-64
2022/05/11 20:14:31;;;;;;;0.10;0.10;;;;;;;12.75;96.81;100778.22;10410227;28;20280;-63
2022/05/11 20:19:32;;;;;;;0.10;0.10;;;;;;;12.77;95.51;100792.25;10411366;28;20264;-64
2022/05/11 20:24:34;;;;;;;0.10;0.10;;;;;;;12.79;95.08;100779.53;10409076;28;20463;-64
2022/05/11 20:29:35;;;;;;;0.10;0.10;;;;;;;12.82;94.68;100794.38;10409720;28;20017;-64
2022/05/11 20:39:54;;;;;;;0.10;0.10;;;;;;;12.81;94.97;100798.06;10409900;28;20025;-67
2022/05/11 20:44:56;;;;;;;0.10;0.10;;;;;;;12.80;94.12;100807.09;10409119;28;20013;-64
2022/05/11 20:49:56;;;;;;;0.10;0.10;;;;;;;12.80;94.40;100807.09;10408167;28;20546;-64
2022/05/11 20:54:57;;;;;;;0.10;0.10;;;;;;;12.82;95.16;100805.06;10408163;28;20028;-66
2022/05/11 20:59:57;;;;;;;0.05;0.05;;;;;;;12.84;96.35;100813.75;10408719;28;20216;-64
2022/05/11 21:04:57;;;;;;;0.10;0.10;;;;;;;12.86;97.55;100795.72;10407794;28;20013;-63
2022/05/11 21:09:58;;;;;;;0.08;0.08;;;;;;;12.88;98.65;100796.34;10407501;28;20488;-62
2022/05/11 21:14:59;;;;;;;0.00;0.00;;;;;;;12.92;100.00;100805.72;10406196;28;20068;-64
2022/05/11 21:19:59;;;;;;;0.10;0.10;;;;;;;12.95;100.00;100794.66;10407796;28;20013;-68
2022/05/11 21:24:59;;;;;;;0.10;0.10;;;;;;;12.90;100.00;100779.13;10396059;28;20021;-64
2022/05/11 21:30:00;;;;;;;0.00;0.00;;;;;;;12.85;100.00;100786.00;10383365;28;20135;-67
2022/05/11 21:35:02;;;;;;;0.10;0.10;;;;;;;12.76;100.00;100763.84;10406713;28;20028;-64
2022/05/11 21:40:05;;;;;;;0.10;0.10;;;;;;;12.66;100.00;100768.59;10420674;28;20048;-63
2022/05/11 21:45:06;;;;;;;0.10;0.10;;;;;;;12.54;100.00;100773.47;10420422;28;20036;-61
2022/05/11 21:50:08;;;;;;;0.10;0.10;;;;;;;12.41;100.00;100768.66;10420829;28;20510;-62
2022/05/11 21:55:10;;;;;;;0.10;0.10;;;;;;;12.34;100.00;100742.84;10420436;28;20756;-63
2022/05/11 22:00:22;;;;;;;0.10;0.10;;;;;;;12.28;100.00;100732.84;10420797;28;20029;-61
2022/05/11 22:05:23;;;;;;;0.05;0.05;;;;;;;12.25;100.00;100720.66;10420098;28;20269;-63
2022/05/11 22:10:24;;;;;;;0.00;0.00;;;;;;;12.22;100.00;100695.13;10420405;28;20029;-62
2022/05/11 22:15:25;;;;;;;0.03;0.03;;;;;;;12.21;100.00;100701.47;10419645;28;20024;-63
2022/05/11 22:20:27;;;;;;;0.08;0.08;;;;;;;12.16;100.00;100695.84;10421137;28;20275;-67
2022/05/11 22:25:31;;;;;;;0.00;0.00;;;;;;;12.12;100.00;100697.16;10419952;28;20051;-67
2022/05/11 22:30:34;;;;;;;0.10;0.10;;;;;;;12.09;100.00;100689.50;10421348;28;20060;-68
2022/05/11 22:35:45;;;;;;;0.10;0.10;;;;;;;12.07;100.00;100688.84;10419468;28;20056;-63
2022/05/11 22:40:46;;;;;;;0.10;0.10;;;;;;;12.05;100.00;100690.84;10420184;28;20434;-61
2022/05/11 22:45:46;;;;;;;0.10;0.10;;;;;;;11.99;100.00;100679.03;10418028;28;20017;-68
2022/05/11 22:50:53;;;;;;;0.10;0.10;;;;;;;11.97;100.00;100662.34;10414335;28;20527;-63
2022/05/11 22:55:54;;;;;;;0.10;0.10;;;;;;;11.97;100.00;100672.19;10412388;28;20164;-64
2022/05/11 23:00:54;;;;;;;0.10;0.10;;;;;;;11.94;100.00;100675.22;10409591;22;20054;-65
2022/05/11 23:05:55;;;;;;;0.10;0.10;;;;;;;11.96;100.00;100686.56;10410198;28;20022;-64
2022/05/11 23:10:55;;;;;;;0.10;0.10;;;;;;;12.05;100.00;100668.69;10406873;28;20140;-65
2022/05/11 23:15:55;;;;;;;0.00;0.00;;;;;;;12.08;100.00;100681.69;10410052;28;20013;-64
2022/05/11 23:20:56;;;;;;;0.10;0.10;;;;;;;12.11;100.00;100678.66;10412366;28;20037;-64
2022/05/11 23:25:57;;;;;;;0.10;0.10;;;;;;;12.14;100.00;100663.13;10403317;28;20311;-64
2022/05/11 23:30:57;;;;;;;0.10;0.10;;;;;;;12.18;100.00;100648.41;10371378;28;20038;-64
2022/05/11 23:35:58;;;;;;;0.10;0.10;;;;;;;12.23;100.00;100647.91;10369840;28;20099;-64
2022/05/11 23:40:58;;;;;;;0.10;0.10;;;;;;;12.24;100.00;100645.03;10381863;28;20264;-64
2022/05/11 23:45:58;;;;;;;0.10;0.10;;;;;;;12.27;100.00;100643.84;10409084;28;20017;-64
2022/05/11 23:51:01;;;;;;;0.00;0.00;;;;;;;12.29;100.00;100654.38;10410622;28;20306;-64
2022/05/11 23:56:02;;;;;;;0.05;0.05;;;;;;;12.31;100.00;100660.38;10410039;28;20277;-64
